Flight Track Log - Related Links

Times and Time Zones

All times are in EST time to prevent confusion due to time zone crossing. See the EJA749 flight status page for this flight to view local times or setup timezone preferences in your user account.

Time Position Orientation Groundspeed Altitude Reporting Facility
EST Latitude Longitude Course Direction KTS MPH feet Rate Location/Type
Sat 04:09:50 PM 26.7306 -79.9525 69° East 266 306 6,700  Level Miami Center
Sat 04:10:50 PM 26.7861 -79.8958 42° Northeast 281 323 9,900 3,300 Climbing Miami Center
Sat 04:11:50 PM 26.8483 -79.8158 49° Northeast 316 364 13,300 3,150 Climbing Miami Center
Sat 04:12:50 PM 26.9086 -79.7267 53° Northeast 348 400 16,200 2,800 Climbing Miami Center
Sat 04:13:50 PM 26.9775 -79.6189 54° Northeast 381 438 18,900 2,450 Climbing Miami Center
Sat 04:14:00 PM 27.3020 -79.8623 69° East  Level Estimated
Sat 04:14:50 PM 27.0483 -79.5156 52° Northeast 402 463 21,100  Level Miami Center
Sat 04:15:50 PM 27.1172 -79.4075 54° Northeast 417 480 22,900 1,800 Climbing Miami Center
Sat 04:16:50 PM 27.1858 -79.3061 53° Northeast 439 505 24,700 1,600 Climbing Miami Center
Sat 04:17:50 PM 27.2608 -79.1886 54° Northeast 453 521 26,100 1,550 Climbing Miami Center
Sat 04:18:50 PM 27.3483 -79.0594 53° Northeast 467 537 27,800 1,550 Climbing Miami Center
Sat 04:19:50 PM 27.4681 -79.0194 17° North 431 496 29,200 1,400 Climbing Miami Center
Sat 04:20:50 PM 27.5789 -78.9981 10° North 436 502 30,600 1,450 Climbing Miami Center
Sat 04:21:50 PM 27.7025 -78.9700 11° North 445 512 32,100 1,550 Climbing Miami Center
Sat 04:22:50 PM 27.8367 -78.9442 10° North 445 512 33,700 1,450 Climbing Miami Center
Sat 04:23:50 PM 27.9581 -78.9206 10° North 437 503 35,000 1,350 Climbing Miami Center
Sat 04:24:50 PM 28.0669 -78.8967 11° North 442 509 36,400 1,250 Climbing Miami Center
Sat 04:25:50 PM 28.1864 -78.8731 10° North 436 502 37,500 1,050 Climbing Miami Center
Sat 04:26:50 PM 28.3014 -78.8467 11° North 431 496 38,500 950 Climbing Miami Center
Sat 04:27:50 PM 28.4208 -78.8253 North 431 496 39,400 950 Climbing Miami Center
Sat 04:28:50 PM 28.5358 -78.7989 11° North 426 490 40,400 800 Climbing Miami Center
Sat 04:29:50 PM 28.6511 -78.7772 North 419 482 41,000 300 Climbing Miami Center
Sat 04:30:50 PM 28.7661 -78.7508 11° North 419 482 41,000  Level Miami Center
Sat 04:31:50 PM 28.8769 -78.7267 11° North 413 475 41,000  Level Miami Center
Sat 04:32:50 PM 28.9878 -78.7047 10° North 408 470 41,000  Level Miami Center
Sat 04:33:50 PM 29.1031 -78.6828 North 408 470 41,000  Level Miami Center
Sat 04:34:50 PM 29.2181 -78.6586 10° North 408 470 41,000  Level Miami Center
Sat 04:35:50 PM 29.3247 -78.6294 13° North 414 476 41,000  Level Miami Center
Sat 04:36:50 PM 29.4397 -78.6075 North 414 476 41,000  Level Miami Center
Sat 04:39:04 PM 29.6917 -78.5489 11° North 413 475 41,000  Level Jacksonville Center
Sat 04:40:04 PM 29.7906 -78.5108 18° North 398 458 41,000  Level Jacksonville Center
Sat 04:41:05 PM 29.8936 -78.4728 18° North 390 449 41,000  Level Jacksonville Center
Sat 04:42:04 PM 30.0011 -78.4439 13° North 390 449 41,000  Level Jacksonville Center
Sat 04:43:04 PM 30.1019 -78.4081 17° North 384 442 41,000  Level Jacksonville Center
Sat 04:44:04 PM 30.2156 -78.3692 16° North 377 434 41,000  Level Jacksonville Center
Sat 04:45:04 PM 30.3228 -78.3353 15° North 377 434 41,000  Level Jacksonville Center
Sat 04:46:04 PM 30.4258 -78.2989 17° North 377 434 41,000  Level Jacksonville Center
Sat 04:47:04 PM 30.5331 -78.2625 16° North 386 444 41,000  Level Jacksonville Center
Sat 04:48:04 PM 30.6403 -78.2283 15° North 392 451 41,000  Level Jacksonville Center
Sat 04:49:04 PM 30.7478 -78.1939 15° North 392 451 41,000  Level Jacksonville Center
Sat 04:50:04 PM 30.8464 -78.1553 19° North 384 442 41,000  Level Jacksonville Center
Sat 04:51:04 PM 30.9517 -78.1208 16° North 377 434 41,000  Level Jacksonville Center
Sat 04:52:04 PM 31.0522 -78.0747 21° North 377 434 41,000  Level Jacksonville Center
Sat 04:53:04 PM 31.1553 -78.0450 14° North 377 434 41,000  Level Jacksonville Center
Sat 04:54:04 PM 31.2583 -78.0106 16° North 377 434 41,000  Level Jacksonville Center
Sat 04:55:04 PM 31.3633 -77.9711 18° North 377 434 41,000  Level Jacksonville Center
Sat 04:56:04 PM 31.4686 -77.9411 14° North 382 440 41,000  Level Jacksonville Center
Sat 04:57:04 PM 31.5758 -77.9061 16° North 382 440 41,000  Level Jacksonville Center
Sat 04:58:04 PM 31.6828 -77.8639 19° North 394 453 41,000  Level Jacksonville Center
Sat 04:59:04 PM 31.7897 -77.8239 18° North 394 453 41,000  Level Jacksonville Center
Sat 05:00:04 PM 31.8967 -77.7861 17° North 394 453 41,000  Level Jacksonville Center
Sat 05:01:04 PM 32.0036 -77.7458 18° North 394 453 41,000  Level Jacksonville Center
Sat 05:02:04 PM 32.1089 -77.7178 13° North 394 453 41,000  Level Jacksonville Center
Sat 05:03:04 PM 32.2178 -77.6772 17° North 394 453 41,000  Level Jacksonville Center
Sat 05:04:04 PM 32.3228 -77.6394 17° North 394 453 41,000  Level Jacksonville Center
Sat 05:05:04 PM 32.4275 -77.6039 16° North 394 453 41,000  Level Jacksonville Center
Sat 05:06:04 PM 32.5303 -77.5658 17° North 389 448 41,000  Level Jacksonville Center
Sat 05:07:04 PM 32.6372 -77.5275 17° North 389 448 41,000  Level Jacksonville Center
Sat 05:08:04 PM 32.7400 -77.4917 16° North 389 448 41,000  Level Jacksonville Center
Sat 05:09:04 PM 32.8408 -77.4561 17° North 389 448 41,000  Level Jacksonville Center
Sat 05:10:04 PM 32.9436 -77.4203 16° North 389 448 41,000  Level Jacksonville Center
Sat 05:11:18 PM 33.0633 -77.3781 16° North 382 440 41,000  Level Washington Center
Sat 05:12:18 PM 33.1642 -77.3406 17° North 382 440 41,000  Level Washington Center
Sat 05:13:16 PM 33.2667 -77.3053 16° North 382 440 41,000  Level Washington Center
Sat 05:14:17 PM 33.3717 -77.2653 18° North 382 440 41,000  Level Washington Center
Sat 05:15:17 PM 33.4764 -77.2275 17° North 382 440 41,000  Level Washington Center
Sat 05:16:18 PM 33.5811 -77.1897 17° North 382 440 41,000  Level Washington Center
Sat 05:17:16 PM 33.6861 -77.1517 17° North 382 440 41,000  Level Washington Center
Sat 05:18:16 PM 33.7886 -77.1136 17° North 382 440 41,000  Level Washington Center
Sat 05:19:16 PM 33.8956 -77.0756 16° North 382 440 41,000  Level Washington Center
Sat 05:20:17 PM 34.0025 -77.0350 17° North 382 440 41,000  Level Washington Center
Sat 05:21:18 PM 34.1072 -76.9992 16° North 387 445 41,000  Level Washington Center
Sat 05:22:18 PM 34.2119 -76.9583 18° North 387 445 41,000  Level Washington Center
Sat 05:23:19 PM 34.3189 -76.9222 16° North 387 445 41,000  Level Washington Center
Sat 05:24:16 PM 34.4214 -76.8811 18° North 387 445 41,000  Level Washington Center
Sat 05:25:16 PM 34.5283 -76.8450 16° North 387 445 41,000  Level Washington Center
Sat 05:26:16 PM 34.6331 -76.8061 17° North 387 445 41,000  Level Washington Center
Sat 05:27:17 PM 34.7272 -76.7672 19° North 387 445 41,000  Level Washington Center
Sat 05:28:17 PM 34.8342 -76.7308 16° North 387 445 41,000  Level Washington Center
Sat 05:29:18 PM 34.9386 -76.6917 17° North 387 445 41,000  Level Washington Center
Sat 05:30:19 PM 35.0433 -76.6500 18° North 387 445 41,000  Level Washington Center
Sat 05:31:16 PM 35.1503 -76.6108 17° North 387 445 41,000  Level Washington Center
Sat 05:32:16 PM 35.2569 -76.5689 18° North 392 451 41,000  Level Washington Center
Sat 05:33:17 PM 35.3719 -76.5219 18° North 392 451 41,000  Level Washington Center
Sat 05:34:17 PM 35.4789 -76.4822 17° North 392 451 41,000  Level Washington Center
Sat 05:35:18 PM 35.5875 -76.4425 17° North 397 457 41,000  Level Washington Center
Sat 05:36:18 PM 35.6964 -76.4003 17° North 402 463 41,000  Level Washington Center
Sat 05:37:16 PM 35.8031 -76.3578 18° North 402 463 41,000  Level Washington Center
Sat 05:38:17 PM 35.9097 -76.3178 17° North 402 463 41,000  Level Washington Center
Sat 05:39:17 PM 36.0164 -76.2778 17° North 402 463 41,000  Level Washington Center
Sat 05:40:18 PM 36.1250 -76.2347 18° North 402 463 41,000  Level Washington Center
Sat 05:41:18 PM 36.2317 -76.1894 19° North 402 463 41,000  Level Washington Center
Sat 05:42:16 PM 36.3403 -76.1517 16° North 402 463 41,000  Level Washington Center
Sat 05:43:16 PM 36.4492 -76.1083 18° North 402 463 41,000  Level Washington Center
Sat 05:44:17 PM 36.5556 -76.0678 17° North 402 463 41,000  Level Washington Center
Sat 05:45:17 PM 36.6600 -76.0244 18° North 402 463 41,000  Level Washington Center
Sat 05:46:18 PM 36.7603 -75.9833 18° North 402 463 41,000  Level Washington Center
Sat 05:47:16 PM 36.8817 -75.9372 17° North 402 463 41,000  Level Washington Center
Sat 05:48:17 PM 36.9858 -75.8986 16° North 411 473 41,000  Level Washington Center
Sat 05:49:16 PM 37.0944 -75.8550 18° North 417 480 41,000  Level Washington Center
Sat 05:50:16 PM 37.2053 -75.8108 18° North 417 480 41,000  Level Washington Center
Sat 05:51:17 PM 37.3158 -75.7694 17° North 417 480 41,000  Level Washington Center
Sat 05:52:17 PM 37.4222 -75.7253 18° North 417 480 41,000  Level Washington Center
Sat 05:53:18 PM 37.5350 -75.6783 18° North 417 480 41,000  Level Washington Center
Sat 05:54:18 PM 37.6475 -75.6336 17° North 417 480 41,000  Level Washington Center
Sat 05:55:16 PM 37.7581 -75.5892 18° North 417 480 41,000  Level Washington Center
Sat 05:56:17 PM 37.8686 -75.5444 18° North 417 480 41,000  Level Washington Center
Sat 05:57:15 PM 37.9792 -75.4969 19° North 417 480 41,000  Level Washington Center
Sat 05:58:17 PM 38.0897 -75.4467 20° North 417 480 41,000  Level Washington Center
Sat 05:59:16 PM 38.2000 -75.3778 26° Northeast 427 491 41,000  Level Washington Center
Sat 06:00:16 PM 38.3103 -75.3114 25° Northeast 432 497 41,000  Level Washington Center
Sat 06:01:17 PM 38.4167 -75.2419 27° Northeast 432 497 41,000  Level Washington Center
Sat 06:02:18 PM 38.5267 -75.1644 29° Northeast 432 497 41,000 -50 Level Washington Center
Sat 06:03:16 PM 38.6369 -75.1025 24° Northeast 427 491 40,900 -504 Descending Washington Center
Sat 06:04:17 PM 38.7408 -75.0114 34° Northeast 438 504 40,000 -1,240 Descending Washington Center
Sat 06:05:17 PM 38.8467 -74.9281 32° Northeast 444 511 38,400 -1,636 Descending Washington Center
Sat 06:06:18 PM 38.9567 -74.8308 34° Northeast 461 531 36,700 -1,714 Descending Washington Center
Sat 06:07:16 PM 39.0686 -74.7361 33° Northeast 470 541 35,000 -1,714 Descending Washington Center
Sat 06:08:17 PM 39.1825 -74.6411 33° Northeast 481 554 33,300 -2,066 Descending Washington Center
Sat 06:09:18 PM 39.2942 -74.5456 34° Northeast 481 554 30,800 -2,549 Descending Washington Center
Sat 06:10:50 PM 39.4681 -74.3958 34° Northeast 473 544 26,800 -2,526 Descending New York Center
Sat 06:11:50 PM 39.5708 -74.3042 34° Northeast 463 533 24,400 -1,600 Descending New York Center
Sat 06:12:50 PM 39.6633 -74.2119 37° Northeast 442 509 23,600 -950 Descending New York Center
Sat 06:13:50 PM 39.7536 -74.1164 39° Northeast 427 491 22,500 -950 Descending New York Center
Sat 06:14:50 PM 39.8458 -74.0208 38° Northeast 416 479 21,700 -800 Descending New York Center
Sat 06:15:50 PM 39.9361 -73.9219 40° Northeast 416 479 20,900 -797 Descending New York Center
Sat 06:17:28 PM 40.0678 -73.7778 40° Northeast 401 461 19,600 -759 Descending Boston Center
Sat 06:18:28 PM 40.1519 -73.6883 39° Northeast 392 451 18,900 -744 Descending Boston Center
Sat 06:19:29 PM 40.2411 -73.5947 39° Northeast 388 447 18,100 -738 Descending Boston Center
Sat 06:20:30 PM 40.3244 -73.5028 40° Northeast 390 449 17,400 -532 Descending Boston Center
Sat 06:21:33 PM 40.4150 -73.4400 28° Northeast 369 425 17,000 -194 Descending Boston Center
Sat 06:22:34 PM 40.5333 -73.3981 15° North 367 422 17,000  Level Boston Center
Sat 06:23:35 PM 40.6339 -73.3617 15° North 373 429 17,000 -393 Level Boston Center
Sat 06:24:36 PM 40.7314 -73.3267 15° North 362 417 16,200 -984 Descending Boston Center
Sat 06:25:37 PM 40.8050 -73.2756 28° Northeast 319 367 15,000 -1,279 Descending Boston Center
Sat 06:26:38 PM 40.8539 -73.1786 56° Northeast 319 367 13,600 -1,550 Descending Boston Center
Sat 06:27:37 PM 40.9025 -73.0794 57° Northeast 320 368 11,900 -1,902 Descending Boston Center
Sat 06:28:41 PM 40.9703 -73.0278 30° Northeast 302 348 9,700 -2,293 Descending Boston Center
Sat 06:29:40 PM 41.0197 -73.1006 312° West 284 327 7,200 -2,182 Descending Boston Center
Sat 06:30:42 PM 41.0556 -73.1869 299° West 270 311 5,300 -1,574 Descending Boston Center
Sat 06:31:42 PM 41.0911 -73.2758 298° West 272 313 4,000 -645 Descending Boston Center
Sat 06:32:43 PM 41.1294 -73.3717 298° West 265 305 4,000 -242 Level Boston Center
Sat 06:33:46 PM 41.1347 -73.4558 275° West 273 314 3,500 -484 Descending Boston Center
Sat 06:34:47 PM 41.1375 -73.5506 272° West 262 302 3,000 -180 Descending Boston Center
Sat 06:35:59 PM 41.1667 -73.6500 291° West 233 268 3,100 -298 Climbing New York TRACON
Sat 06:37:48 PM 41.2064 -73.7631 295° West 192 221 2,100 -388 Descending Boston Center
Sat 06:38:49 PM 41.1697 -73.7836 203° Southwest 168 193 2,000 -145 Descending Boston Center
Sat 06:39:52 PM 41.1347 -73.7614 154° Southeast 151 174 1,800 -415 Descending Boston Center
Sat 06:40:59 PM 41.1000 -73.7333 149° Southeast 126 145 1,100 -627 Descending New York TRACON

Login

Don't have an account? Register now (free) for customized features, flight alerts, and more!